Virginia — WCW4062 — position and weather

sailwx.info

Track history (hours):
 
Tides and Currents Weather Stations Pressure Air Temp Water Temp Dewpoint Dewpoint Depression Visibility Wind Speed Wind Dir Waves Ship Positions

Virginia

Owner: WEEKS MARINE, INC., CRANFORD, NJ. More information available from US FCC via Universal Licensing System and Coast Guard Vessel Documentation Center.

Last reported at 2015-Aug-30 13:33 UTC. Time now 2015-Aug-30 13:55 UTC.
Position N 40°41' W 074°04'.

MMSI: 366939110.

Date/timePositionNaut miles runAvg speedWind from/ knotsBaromVisibWave heightAir tempDewpointWater temp
2015-Aug-30 13:33N 40°41' W 074°04'0 0.0
2015-Aug-30 12:33N 40°41' W 074°04'0 0.0
2015-Aug-30 11:33N 40°41' W 074°04'0 0.0
2015-Aug-30 10:33N 40°41' W 074°04'0 0.0
2015-Aug-30 09:33N 40°41' W 074°04'0 0.0
2015-Aug-30 08:33N 40°41' W 074°04'0 0.0
2015-Aug-30 07:33N 40°41' W 074°04'0 0.0
2015-Aug-30 06:33N 40°41' W 074°04'1 0.8
2015-Aug-30 05:33N 40°40' W 074°04'0 0.0
2015-Aug-30 04:33N 40°40' W 074°04'2 1.7
2015-Aug-30 03:33N 40°41' W 074°02'8 8.3
2015-Aug-30 02:33N 40°49' W 073°58'7 7.0
2015-Aug-30 01:32N 40°55' W 073°55'3 0.1
2015-Aug-28 10:33N 40°53' W 073°56'8 7.6
2015-Aug-28 09:33N 40°46' W 074°00'6 5.9
2015-Aug-28 08:33N 40°40' W 074°04'0 0.2
2015-Aug-28 07:33N 40°40' W 074°04'0 0.0
2015-Aug-28 06:33N 40°40' W 074°04'0 0.0
2015-Aug-28 05:33N 40°40' W 074°04'0 0.0
2015-Aug-28 04:33N 40°40' W 074°04'0 0.0
2015-Aug-28 03:33N 40°40' W 074°04'0 0.0
2015-Aug-28 02:33N 40°40' W 074°04'0 0.0
2015-Aug-28 01:33N 40°40' W 074°04'0 0.0
2015-Aug-28 00:33N 40°40' W 074°04'0 0.0
2015-Aug-27 23:33N 40°40' W 074°04'1 1.2
2015-Aug-27 22:33N 40°39' W 074°04'3 3.3
2015-Aug-27 21:33N 40°40' W 074°08'0 0.1
2015-Aug-27 20:33N 40°40' W 074°08'0 0.0
2015-Aug-27 19:33N 40°40' W 074°08'0 0.3
2015-Aug-27 18:33N 40°40' W 074°08'0 0.1
2015-Aug-27 17:33N 40°40' W 074°08'1 0.6
2015-Aug-27 16:33N 40°40' W 074°08'3 2.8
2015-Aug-27 15:33N 40°39' W 074°05'1 1.4
2015-Aug-27 14:33N 40°40' W 074°04'0 0.2
2015-Aug-27 13:33N 40°41' W 074°05'0 0.0
2015-Aug-27 12:33N 40°41' W 074°05'0 0.1
2015-Aug-27 11:33N 40°40' W 074°04'0 0.1
2015-Aug-27 10:33N 40°41' W 074°05'0 0.0
2015-Aug-27 09:33N 40°41' W 074°05'0 0.0
2015-Aug-27 08:33N 40°41' W 074°05'0 0.0
2015-Aug-27 07:33N 40°41' W 074°05'0 0.0
2015-Aug-27 06:33N 40°41' W 074°05'0 0.0
2015-Aug-27 05:33N 40°41' W 074°05'0 0.0
2015-Aug-27 04:33N 40°41' W 074°05'0 0.0
2015-Aug-27 03:33N 40°41' W 074°05'0 0.0
2015-Aug-27 02:33N 40°41' W 074°05'0 0.0
2015-Aug-27 01:33N 40°41' W 074°05'0 0.0
2015-Aug-27 00:33N 40°41' W 074°05'0 0.0
2015-Aug-26 23:33N 40°41' W 074°05'0 0.0
2015-Aug-26 22:33N 40°41' W 074°05'0 0.0
2015-Aug-26 21:33N 40°41' W 074°05'0 0.0
2015-Aug-26 20:33N 40°41' W 074°05'0 0.0
2015-Aug-26 19:33N 40°41' W 074°05'0 0.0
2015-Aug-26 18:33N 40°41' W 074°05'0 0.0
2015-Aug-26 17:33N 40°41' W 074°05'0 0.0
2015-Aug-26 16:33N 40°41' W 074°05'0 0.0
2015-Aug-26 15:33N 40°41' W 074°05'0 0.0
2015-Aug-26 14:33N 40°41' W 074°05'0 0.1
2015-Aug-26 13:33N 40°41' W 074°04'0 0.0
2015-Aug-26 12:33N 40°41' W 074°04'0 0.0
2015-Aug-26 11:33N 40°41' W 074°04'0 0.1
2015-Aug-26 10:33N 40°41' W 074°05'0 0.0
2015-Aug-26 09:33N 40°41' W 074°05'0 0.0
2015-Aug-26 08:33N 40°41' W 074°05'0 0.0
2015-Aug-26 07:33N 40°41' W 074°05'0 0.0
2015-Aug-26 06:33N 40°41' W 074°05'0 0.0
2015-Aug-26 05:33N 40°41' W 074°05'0 0.0
2015-Aug-26 04:33N 40°41' W 074°05'0 0.0
2015-Aug-26 03:33N 40°41' W 074°05'0 0.0
2015-Aug-26 02:33N 40°41' W 074°05'0 0.0
2015-Aug-26 01:33N 40°41' W 074°05'0 0.0
2015-Aug-26 00:33N 40°41' W 074°05'0 0.0
2015-Aug-25 23:33N 40°41' W 074°05'0 0.1
2015-Aug-25 22:33N 40°41' W 074°05'0 0.0
2015-Aug-25 21:34N 40°41' W 074°05'0 0.1
2015-Aug-25 20:33N 40°41' W 074°04'0 0.1
2015-Aug-25 19:33N 40°41' W 074°04'5 5.0
2015-Aug-25 18:33N 40°36' W 074°02'5 4.6
2015-Aug-25 17:33N 40°33' W 073°58'4 4.3
2015-Aug-25 16:33N 40°32' W 073°52'0 0.4
2015-Aug-25 15:31N 40°33' W 073°52'0 0.5
2015-Aug-25 14:29N 40°33' W 073°53'0 0.0
2015-Aug-25 13:33N 40°33' W 073°53'0 0.0
2015-Aug-25 12:33N 40°33' W 073°53'0 0.0
2015-Aug-25 11:33N 40°33' W 073°53'0 0.0
2015-Aug-25 10:33N 40°33' W 073°53'0 0.0
2015-Aug-25 09:31N 40°33' W 073°53'0 0.0
2015-Aug-25 08:33N 40°33' W 073°53'0 0.0
2015-Aug-25 07:29N 40°33' W 073°53'0 0.0
2015-Aug-25 06:28N 40°33' W 073°53'0 0.0
2015-Aug-25 05:33N 40°33' W 073°53'0 0.0
2015-Aug-25 04:33N 40°33' W 073°53'0 0.0
2015-Aug-25 03:33N 40°33' W 073°53'0 0.0
2015-Aug-25 02:33N 40°33' W 073°53'0 0.0
2015-Aug-25 01:33N 40°33' W 073°53'0 0.0
2015-Aug-25 00:33N 40°33' W 073°53'0 0.0
2015-Aug-24 23:33N 40°33' W 073°53'0 0.0
2015-Aug-24 22:33N 40°33' W 073°53'0 0.0
2015-Aug-24 21:32N 40°33' W 073°53'0 0.0
2015-Aug-24 20:33N 40°33' W 073°53'0 0.2
2015-Aug-24 19:33N 40°33' W 073°52'0 0.2
2015-Aug-24 18:28N 40°33' W 073°53'0 0.0
2015-Aug-24 17:32N 40°33' W 073°53'0 0.0
2015-Aug-24 16:33N 40°33' W 073°53'0 0.0
2015-Aug-24 15:33N 40°33' W 073°53'0 0.0
2015-Aug-24 14:31N 40°33' W 073°53'0 0.0
2015-Aug-24 13:33N 40°33' W 073°53'0 0.0
2015-Aug-24 12:33N 40°33' W 073°53'0 0.0
2015-Aug-24 11:28N 40°33' W 073°53'0 0.0
2015-Aug-24 10:32N 40°33' W 073°53'0 0.0
2015-Aug-24 09:33N 40°33' W 073°53'0 0.0
2015-Aug-24 08:33N 40°33' W 073°53'0 0.0
2015-Aug-24 07:32N 40°33' W 073°53'0 0.0
2015-Aug-24 06:31N 40°33' W 073°53'0 0.0
2015-Aug-24 05:33N 40°33' W 073°53'0 0.0
2015-Aug-24 04:30N 40°33' W 073°53'0 0.0
2015-Aug-24 03:33N 40°33' W 073°53'0 0.0
2015-Aug-24 02:33N 40°33' W 073°53'0 0.0
2015-Aug-24 01:33N 40°33' W 073°53'0 0.0
2015-Aug-24 00:33N 40°33' W 073°53'0 0.0
2015-Aug-23 23:33N 40°33' W 073°53'0 0.0
2015-Aug-23 22:32N 40°33' W 073°53'0 0.0
2015-Aug-23 21:33N 40°33' W 073°53'0 0.1
2015-Aug-23 20:33N 40°33' W 073°53'0 0.1
2015-Aug-23 19:31N 40°33' W 073°53'1 0.7
2015-Aug-23 18:31N 40°32' W 073°52'0 0.4
2015-Aug-23 17:32N 40°33' W 073°52'1 0.7
2015-Aug-23 16:33N 40°33' W 073°52'0 0.3
2015-Aug-23 15:33N 40°33' W 073°52'0 0.2
2015-Aug-23 14:33N 40°33' W 073°52'0 0.0
2015-Aug-23 13:33N 40°33' W 073°52'0 0.0
2015-Aug-23 12:33N 40°33' W 073°52'0 0.0
2015-Aug-23 11:33N 40°33' W 073°52'0 0.0
2015-Aug-23 10:32N 40°33' W 073°52'0 0.0
2015-Aug-23 09:33N 40°33' W 073°52'0 0.0
2015-Aug-23 08:33N 40°33' W 073°52'0 0.0
2015-Aug-23 07:33N 40°33' W 073°52'0 0.0
2015-Aug-23 06:23N 40°33' W 073°52'0 0.0
2015-Aug-23 05:31N 40°33' W 073°52'0 0.1
2015-Aug-23 04:30N 40°33' W 073°52'0 0.3
2015-Aug-23 03:33N 40°33' W 073°52'2 1.9
2015-Aug-23 02:33N 40°32' W 073°50'1 1.1
2015-Aug-23 01:33N 40°32' W 073°52'2 1.8
2015-Aug-23 00:33N 40°32' W 073°54'2 1.5
2015-Aug-22 23:33N 40°32' W 073°52'1 0.8
2015-Aug-22 22:33N 40°33' W 073°52'1 0.7
2015-Aug-22 21:24N 40°32' W 073°52'1 1.3
2015-Aug-22 20:33N 40°33' W 073°52'2 1.6
2015-Aug-22 19:33N 40°32' W 073°52'2 1.6
2015-Aug-22 18:33N 40°33' W 073°52'1 0.6
2015-Aug-22 17:31N 40°33' W 073°52'0 0.4
2015-Aug-22 16:32N 40°33' W 073°52'4 3.6
2015-Aug-22 15:32N 40°32' W 073°57'4 3.8
2015-Aug-22 14:33N 40°34' W 074°00'6 5.5
2015-Aug-22 13:33N 40°39' W 074°03'2 1.6
2015-Aug-22 12:33N 40°41' W 074°04'0 0.0
2015-Aug-22 11:33N 40°41' W 074°04'0 0.0
2015-Aug-22 10:33N 40°41' W 074°04'0 0.0
2015-Aug-22 09:34N 40°41' W 074°04'0 0.0
2015-Aug-22 08:33N 40°41' W 074°04'0 0.0
2015-Aug-22 07:33N 40°41' W 074°04'0 0.0
2015-Aug-22 06:33N 40°41' W 074°04'3 3.2
2015-Aug-22 05:33N 40°38' W 074°03'4 4.0
2015-Aug-22 04:33N 40°34' W 074°00'3 2.8
2015-Aug-22 03:33N 40°32' W 073°58'2 2.1
2015-Aug-22 02:33N 40°32' W 073°55'2 1.9
2015-Aug-22 01:33N 40°33' W 073°53'0 0.1
2015-Aug-22 00:32N 40°33' W 073°53'0 0.0
2015-Aug-21 23:32N 40°33' W 073°53'0 0.1
2015-Aug-21 22:33N 40°33' W 073°53'2 1.7
2015-Aug-21 21:32N 40°32' W 073°54'3 3.5
2015-Aug-21 20:33N 40°34' W 073°58'5 5.1
2015-Aug-21 19:33N 40°37' W 074°03'4 3.7
2015-Aug-21 18:33N 40°41' W 074°04'0 0.0
2015-Aug-21 17:33N 40°41' W 074°04'0 0.0
2015-Aug-21 16:33N 40°41' W 074°04'0 0.0
2015-Aug-21 15:33N 40°41' W 074°04'0 0.0
2015-Aug-21 14:34N 40°41' W 074°04'0 0.1
2015-Aug-21 13:34N 40°41' W 074°04'0 0.0
2015-Aug-21 12:33N 40°41' W 074°04'0 0.0
2015-Aug-21 11:34N 40°41' W 074°04'0 0.0
2015-Aug-21 10:34N 40°41' W 074°04'0 0.0
2015-Aug-21 09:34N 40°41' W 074°04'0 0.0
2015-Aug-21 08:34N 40°41' W 074°05'0 0.0
2015-Aug-21 07:34N 40°41' W 074°04'0 0.0
2015-Aug-21 06:34N 40°41' W 074°05'0 0.0
2015-Aug-21 05:34N 40°41' W 074°05'0 0.0
2015-Aug-21 04:34N 40°41' W 074°05'0 0.0
2015-Aug-21 03:34N 40°41' W 074°05'0 0.1
2015-Aug-21 02:34N 40°41' W 074°04'0 0.0
2015-Aug-21 01:34N 40°41' W 074°04'4 4.3
2015-Aug-21 00:33N 40°37' W 074°02'3 3.0
2015-Aug-20 23:33N 40°34' W 074°00'3 3.0
2015-Aug-20 22:34N 40°32' W 073°57'3 3.0
2015-Aug-20 21:33N 40°32' W 073°53'1 1.0
2015-Aug-20 20:33N 40°33' W 073°52'0 0.1
2015-Aug-20 19:33N 40°33' W 073°52'0 0.1
2015-Aug-20 18:30N 40°33' W 073°52'0 0.0
2015-Aug-20 17:33N 40°33' W 073°52'0 0.0
2015-Aug-20 16:32N 40°33' W 073°52'0 0.0
2015-Aug-20 15:28N 40°33' W 073°52'0 0.0
2015-Aug-20 14:23N 40°33' W 073°52'  
Track history (hours):
 
Tides and Currents Weather Stations Pressure Air Temp Water Temp Dewpoint Dewpoint Depression Visibility Wind Speed Wind Dir Waves Ship Positions

Virginia

Owner: WEEKS MARINE, INC., CRANFORD, NJ. More information available from US FCC via Universal Licensing System and Coast Guard Vessel Documentation Center.

Last reported at 2015-Aug-30 13:33 UTC. Time now 2015-Aug-30 13:55 UTC.
Position N 40°41' W 074°04'.

MMSI: 366939110.

Date/timePositionNaut miles runAvg speedWind from/ knotsBaromVisibWave heightAir tempDewpointWater temp
2015-Aug-30 13:33N 40°41' W 074°04'0 0.0
2015-Aug-30 12:33N 40°41' W 074°04'0 0.0
2015-Aug-30 11:33N 40°41' W 074°04'0 0.0
2015-Aug-30 10:33N 40°41' W 074°04'0 0.0
2015-Aug-30 09:33N 40°41' W 074°04'0 0.0
2015-Aug-30 08:33N 40°41' W 074°04'0 0.0
2015-Aug-30 07:33N 40°41' W 074°04'0 0.0
2015-Aug-30 06:33N 40°41' W 074°04'1 0.8
2015-Aug-30 05:33N 40°40' W 074°04'0 0.0
2015-Aug-30 04:33N 40°40' W 074°04'2 1.7
2015-Aug-30 03:33N 40°41' W 074°02'8 8.3
2015-Aug-30 02:33N 40°49' W 073°58'7 7.0
2015-Aug-30 01:32N 40°55' W 073°55'3 0.1
2015-Aug-28 10:33N 40°53' W 073°56'8 7.6
2015-Aug-28 09:33N 40°46' W 074°00'6 5.9
2015-Aug-28 08:33N 40°40' W 074°04'0 0.2
2015-Aug-28 07:33N 40°40' W 074°04'0 0.0
2015-Aug-28 06:33N 40°40' W 074°04'0 0.0
2015-Aug-28 05:33N 40°40' W 074°04'0 0.0
2015-Aug-28 04:33N 40°40' W 074°04'0 0.0
2015-Aug-28 03:33N 40°40' W 074°04'0 0.0
2015-Aug-28 02:33N 40°40' W 074°04'0 0.0
2015-Aug-28 01:33N 40°40' W 074°04'0 0.0
2015-Aug-28 00:33N 40°40' W 074°04'0 0.0
2015-Aug-27 23:33N 40°40' W 074°04'1 1.2
2015-Aug-27 22:33N 40°39' W 074°04'3 3.3
2015-Aug-27 21:33N 40°40' W 074°08'0 0.1
2015-Aug-27 20:33N 40°40' W 074°08'0 0.0
2015-Aug-27 19:33N 40°40' W 074°08'0 0.3
2015-Aug-27 18:33N 40°40' W 074°08'0 0.1
2015-Aug-27 17:33N 40°40' W 074°08'1 0.6
2015-Aug-27 16:33N 40°40' W 074°08'3 2.8
2015-Aug-27 15:33N 40°39' W 074°05'1 1.4
2015-Aug-27 14:33N 40°40' W 074°04'0 0.2
2015-Aug-27 13:33N 40°41' W 074°05'0 0.0
2015-Aug-27 12:33N 40°41' W 074°05'0 0.1
2015-Aug-27 11:33N 40°40' W 074°04'0 0.1
2015-Aug-27 10:33N 40°41' W 074°05'0 0.0
2015-Aug-27 09:33N 40°41' W 074°05'0 0.0
2015-Aug-27 08:33N 40°41' W 074°05'0 0.0
2015-Aug-27 07:33N 40°41' W 074°05'0 0.0
2015-Aug-27 06:33N 40°41' W 074°05'0 0.0
2015-Aug-27 05:33N 40°41' W 074°05'0 0.0
2015-Aug-27 04:33N 40°41' W 074°05'0 0.0
2015-Aug-27 03:33N 40°41' W 074°05'0 0.0
2015-Aug-27 02:33N 40°41' W 074°05'0 0.0
2015-Aug-27 01:33N 40°41' W 074°05'0 0.0
2015-Aug-27 00:33N 40°41' W 074°05'0 0.0
2015-Aug-26 23:33N 40°41' W 074°05'0 0.0
2015-Aug-26 22:33N 40°41' W 074°05'0 0.0
2015-Aug-26 21:33N 40°41' W 074°05'0 0.0
2015-Aug-26 20:33N 40°41' W 074°05'0 0.0
2015-Aug-26 19:33N 40°41' W 074°05'0 0.0
2015-Aug-26 18:33N 40°41' W 074°05'0 0.0
2015-Aug-26 17:33N 40°41' W 074°05'0 0.0
2015-Aug-26 16:33N 40°41' W 074°05'0 0.0
2015-Aug-26 15:33N 40°41' W 074°05'0 0.0
2015-Aug-26 14:33N 40°41' W 074°05'0 0.1
2015-Aug-26 13:33N 40°41' W 074°04'0 0.0
2015-Aug-26 12:33N 40°41' W 074°04'0 0.0
2015-Aug-26 11:33N 40°41' W 074°04'0 0.1
2015-Aug-26 10:33N 40°41' W 074°05'0 0.0
2015-Aug-26 09:33N 40°41' W 074°05'0 0.0
2015-Aug-26 08:33N 40°41' W 074°05'0 0.0
2015-Aug-26 07:33N 40°41' W 074°05'0 0.0
2015-Aug-26 06:33N 40°41' W 074°05'0 0.0
2015-Aug-26 05:33N 40°41' W 074°05'0 0.0
2015-Aug-26 04:33N 40°41' W 074°05'0 0.0
2015-Aug-26 03:33N 40°41' W 074°05'0 0.0
2015-Aug-26 02:33N 40°41' W 074°05'0 0.0
2015-Aug-26 01:33N 40°41' W 074°05'0 0.0
2015-Aug-26 00:33N 40°41' W 074°05'0 0.0
2015-Aug-25 23:33N 40°41' W 074°05'0 0.1
2015-Aug-25 22:33N 40°41' W 074°05'0 0.0
2015-Aug-25 21:34N 40°41' W 074°05'0 0.1
2015-Aug-25 20:33N 40°41' W 074°04'0 0.1
2015-Aug-25 19:33N 40°41' W 074°04'5 5.0
2015-Aug-25 18:33N 40°36' W 074°02'5 4.6
2015-Aug-25 17:33N 40°33' W 073°58'4 4.3
2015-Aug-25 16:33N 40°32' W 073°52'0 0.4
2015-Aug-25 15:31N 40°33' W 073°52'0 0.5
2015-Aug-25 14:29N 40°33' W 073°53'0 0.0
2015-Aug-25 13:33N 40°33' W 073°53'0 0.0
2015-Aug-25 12:33N 40°33' W 073°53'0 0.0
2015-Aug-25 11:33N 40°33' W 073°53'0 0.0
2015-Aug-25 10:33N 40°33' W 073°53'0 0.0
2015-Aug-25 09:31N 40°33' W 073°53'0 0.0
2015-Aug-25 08:33N 40°33' W 073°53'0 0.0
2015-Aug-25 07:29N 40°33' W 073°53'0 0.0
2015-Aug-25 06:28N 40°33' W 073°53'0 0.0
2015-Aug-25 05:33N 40°33' W 073°53'0 0.0
2015-Aug-25 04:33N 40°33' W 073°53'0 0.0
2015-Aug-25 03:33N 40°33' W 073°53'0 0.0
2015-Aug-25 02:33N 40°33' W 073°53'0 0.0
2015-Aug-25 01:33N 40°33' W 073°53'0 0.0
2015-Aug-25 00:33N 40°33' W 073°53'0 0.0
2015-Aug-24 23:33N 40°33' W 073°53'0 0.0
2015-Aug-24 22:33N 40°33' W 073°53'0 0.0
2015-Aug-24 21:32N 40°33' W 073°53'0 0.0
2015-Aug-24 20:33N 40°33' W 073°53'0 0.2
2015-Aug-24 19:33N 40°33' W 073°52'0 0.2
2015-Aug-24 18:28N 40°33' W 073°53'0 0.0
2015-Aug-24 17:32N 40°33' W 073°53'0 0.0
2015-Aug-24 16:33N 40°33' W 073°53'0 0.0
2015-Aug-24 15:33N 40°33' W 073°53'0 0.0
2015-Aug-24 14:31N 40°33' W 073°53'0 0.0
2015-Aug-24 13:33N 40°33' W 073°53'0 0.0
2015-Aug-24 12:33N 40°33' W 073°53'0 0.0
2015-Aug-24 11:28N 40°33' W 073°53'0 0.0
2015-Aug-24 10:32N 40°33' W 073°53'0 0.0
2015-Aug-24 09:33N 40°33' W 073°53'0 0.0
2015-Aug-24 08:33N 40°33' W 073°53'0 0.0
2015-Aug-24 07:32N 40°33' W 073°53'0 0.0
2015-Aug-24 06:31N 40°33' W 073°53'0 0.0
2015-Aug-24 05:33N 40°33' W 073°53'0 0.0
2015-Aug-24 04:30N 40°33' W 073°53'0 0.0
2015-Aug-24 03:33N 40°33' W 073°53'0 0.0
2015-Aug-24 02:33N 40°33' W 073°53'0 0.0
2015-Aug-24 01:33N 40°33' W 073°53'0 0.0
2015-Aug-24 00:33N 40°33' W 073°53'0 0.0
2015-Aug-23 23:33N 40°33' W 073°53'0 0.0
2015-Aug-23 22:32N 40°33' W 073°53'0 0.0
2015-Aug-23 21:33N 40°33' W 073°53'0 0.1
2015-Aug-23 20:33N 40°33' W 073°53'0 0.1
2015-Aug-23 19:31N 40°33' W 073°53'1 0.7
2015-Aug-23 18:31N 40°32' W 073°52'0 0.4
2015-Aug-23 17:32N 40°33' W 073°52'1 0.7
2015-Aug-23 16:33N 40°33' W 073°52'0 0.3
2015-Aug-23 15:33N 40°33' W 073°52'0 0.2
2015-Aug-23 14:33N 40°33' W 073°52'0 0.0
2015-Aug-23 13:33N 40°33' W 073°52'0 0.0
2015-Aug-23 12:33N 40°33' W 073°52'0 0.0
2015-Aug-23 11:33N 40°33' W 073°52'0 0.0
2015-Aug-23 10:32N 40°33' W 073°52'0 0.0
2015-Aug-23 09:33N 40°33' W 073°52'0 0.0
2015-Aug-23 08:33N 40°33' W 073°52'0 0.0
2015-Aug-23 07:33N 40°33' W 073°52'0 0.0
2015-Aug-23 06:23N 40°33' W 073°52'0 0.0
2015-Aug-23 05:31N 40°33' W 073°52'0 0.1
2015-Aug-23 04:30N 40°33' W 073°52'0 0.3
2015-Aug-23 03:33N 40°33' W 073°52'2 1.9
2015-Aug-23 02:33N 40°32' W 073°50'1 1.1
2015-Aug-23 01:33N 40°32' W 073°52'2 1.8
2015-Aug-23 00:33N 40°32' W 073°54'2 1.5
2015-Aug-22 23:33N 40°32' W 073°52'1 0.8
2015-Aug-22 22:33N 40°33' W 073°52'1 0.7
2015-Aug-22 21:24N 40°32' W 073°52'1 1.3
2015-Aug-22 20:33N 40°33' W 073°52'2 1.6
2015-Aug-22 19:33N 40°32' W 073°52'2 1.6
2015-Aug-22 18:33N 40°33' W 073°52'1 0.6
2015-Aug-22 17:31N 40°33' W 073°52'0 0.4
2015-Aug-22 16:32N 40°33' W 073°52'4 3.6
2015-Aug-22 15:32N 40°32' W 073°57'4 3.8
2015-Aug-22 14:33N 40°34' W 074°00'6 5.5
2015-Aug-22 13:33N 40°39' W 074°03'2 1.6
2015-Aug-22 12:33N 40°41' W 074°04'0 0.0
2015-Aug-22 11:33N 40°41' W 074°04'0 0.0
2015-Aug-22 10:33N 40°41' W 074°04'0 0.0
2015-Aug-22 09:34N 40°41' W 074°04'0 0.0
2015-Aug-22 08:33N 40°41' W 074°04'0 0.0
2015-Aug-22 07:33N 40°41' W 074°04'0 0.0
2015-Aug-22 06:33N 40°41' W 074°04'3 3.2
2015-Aug-22 05:33N 40°38' W 074°03'4 4.0
2015-Aug-22 04:33N 40°34' W 074°00'3 2.8
2015-Aug-22 03:33N 40°32' W 073°58'2 2.1
2015-Aug-22 02:33N 40°32' W 073°55'2 1.9
2015-Aug-22 01:33N 40°33' W 073°53'0 0.1
2015-Aug-22 00:32N 40°33' W 073°53'0 0.0
2015-Aug-21 23:32N 40°33' W 073°53'0 0.1
2015-Aug-21 22:33N 40°33' W 073°53'2 1.7
2015-Aug-21 21:32N 40°32' W 073°54'3 3.5
2015-Aug-21 20:33N 40°34' W 073°58'5 5.1
2015-Aug-21 19:33N 40°37' W 074°03'4 3.7
2015-Aug-21 18:33N 40°41' W 074°04'0 0.0
2015-Aug-21 17:33N 40°41' W 074°04'0 0.0
2015-Aug-21 16:33N 40°41' W 074°04'0 0.0
2015-Aug-21 15:33N 40°41' W 074°04'0 0.0
2015-Aug-21 14:34N 40°41' W 074°04'0 0.1
2015-Aug-21 13:34N 40°41' W 074°04'0 0.0
2015-Aug-21 12:33N 40°41' W 074°04'0 0.0
2015-Aug-21 11:34N 40°41' W 074°04'0 0.0
2015-Aug-21 10:34N 40°41' W 074°04'0 0.0
2015-Aug-21 09:34N 40°41' W 074°04'0 0.0
2015-Aug-21 08:34N 40°41' W 074°05'0 0.0
2015-Aug-21 07:34N 40°41' W 074°04'0 0.0
2015-Aug-21 06:34N 40°41' W 074°05'0 0.0
2015-Aug-21 05:34N 40°41' W 074°05'0 0.0
2015-Aug-21 04:34N 40°41' W 074°05'0 0.0
2015-Aug-21 03:34N 40°41' W 074°05'0 0.1
2015-Aug-21 02:34N 40°41' W 074°04'0 0.0
2015-Aug-21 01:34N 40°41' W 074°04'4 4.3
2015-Aug-21 00:33N 40°37' W 074°02'3 3.0
2015-Aug-20 23:33N 40°34' W 074°00'3 3.0
2015-Aug-20 22:34N 40°32' W 073°57'3 3.0
2015-Aug-20 21:33N 40°32' W 073°53'1 1.0
2015-Aug-20 20:33N 40°33' W 073°52'0 0.1
2015-Aug-20 19:33N 40°33' W 073°52'0 0.1
2015-Aug-20 18:30N 40°33' W 073°52'0 0.0
2015-Aug-20 17:33N 40°33' W 073°52'0 0.0
2015-Aug-20 16:32N 40°33' W 073°52'0 0.0
2015-Aug-20 15:28N 40°33' W 073°52'0 0.0
2015-Aug-20 14:23N 40°33' W 073°52'  

Dump ship's entire track history